Time;durP1;ratioP1;P1;durP2;ratioP2;P2;SDS_P1;SDS_P2;PMS_P1;PMS_P2;Temp;Humidity;BMP_temperature;BMP_pressure;BME280_temperature;BME280_humidity;BME280_pressure;Samples;Min_cycle;Max_cycle;Signal;HPM_P1;HPM_P2
2024/01/18 00:01:05;;;;;;;13.15;7.47;;;5.60;99.90;;;5.82;66.17;99258.06;4975060;28;20090;-71
2024/01/18 00:03:38;;;;;;;14.35;7.28;;;5.60;99.90;;;5.85;65.91;99257.19;4974835;28;20131;-70
2024/01/18 00:06:09;;;;;;;13.10;7.40;;;5.60;99.90;;;5.84;66.19;99256.34;4974552;28;20126;-70
2024/01/18 00:08:37;;;;;;;14.88;7.38;;;5.70;99.90;;;5.76;65.45;99258.13;4974803;28;20043;-71
2024/01/18 00:11:06;;;;;;;12.38;7.15;;;5.60;99.90;;;5.74;65.47;99261.66;4974533;28;20078;-69
2024/01/18 00:13:34;;;;;;;9.02;7.20;;;5.60;99.90;;;5.75;65.43;99266.88;4974751;28;20053;-70
2024/01/18 00:16:02;;;;;;;10.85;7.20;;;5.60;99.90;;;5.67;65.24;99270.47;4974461;28;20562;-70
2024/01/18 00:18:31;;;;;;;9.75;7.15;;;5.50;99.90;;;5.67;65.25;99280.97;4974568;28;20138;-70
2024/01/18 00:21:01;;;;;;;11.32;7.40;;;5.50;99.90;;;5.68;65.19;99283.56;4974378;28;20042;-71
2024/01/18 00:23:29;;;;;;;12.88;7.47;;;5.50;99.90;;;5.67;65.46;99283.59;4973197;28;20053;-70
2024/01/18 00:25:58;;;;;;;13.70;7.03;;;5.50;99.90;;;5.69;64.95;99282.69;4974337;28;20106;-71
2024/01/18 00:28:26;;;;;;;13.20;7.28;;;5.50;99.90;;;5.61;65.16;99287.16;4973143;28;20046;-69
2024/01/18 00:30:54;;;;;;;13.27;7.22;;;5.40;99.90;;;5.57;65.48;99300.31;4974922;28;20074;-70
2024/01/18 00:33:23;;;;;;;14.25;6.82;;;5.40;99.90;;;5.47;65.43;99294.28;4973075;28;20506;-69
2024/01/18 00:35:51;;;;;;;12.07;7.32;;;5.30;99.90;;;5.45;65.84;99293.41;4974003;28;20051;-71
2024/01/18 00:38:21;;;;;;;11.35;6.85;;;5.30;99.90;;;5.49;66.07;99319.59;4974039;28;20050;-70
2024/01/18 00:40:49;;;;;;;12.95;7.32;;;5.30;99.90;;;5.47;66.68;99299.53;4974197;28;20043;-70
2024/01/18 00:43:18;;;;;;;12.95;7.25;;;5.30;99.90;;;5.42;66.50;99296.94;4973812;28;20055;-69
2024/01/18 00:45:46;;;;;;;10.43;7.20;;;5.30;99.90;;;5.45;66.61;99296.03;4973420;28;20109;-70
2024/01/18 00:48:14;;;;;;;11.38;6.95;;;5.30;99.90;;;5.45;66.80;99293.41;4988677;28;20051;-71
2024/01/18 00:50:43;;;;;;;13.07;7.50;;;5.30;99.90;;;5.42;67.20;99301.28;4973802;28;20089;-71
2024/01/18 00:53:11;;;;;;;10.98;6.85;;;5.20;99.90;;;5.43;66.95;99297.81;4973710;28;20605;-70
2024/01/18 00:55:41;;;;;;;10.48;5.88;;;5.30;99.90;;;5.45;66.80;99302.16;4974021;28;20050;-71
2024/01/18 00:58:09;;;;;;;9.38;6.18;;;5.30;99.90;;;5.49;66.47;99308.25;4973885;28;20050;-69
2024/01/18 01:00:38;;;;;;;9.88;5.47;;;5.30;99.90;;;5.53;66.77;99306.47;4973590;28;20146;-70
2024/01/18 01:03:07;;;;;;;8.95;5.22;;;5.40;99.90;;;5.46;66.32;99308.25;4973729;28;20035;-70
2024/01/18 01:05:35;;;;;;;6.85;5.38;;;5.30;99.90;;;5.45;66.14;99317.03;4973541;28;20070;-70
2024/01/18 01:08:04;;;;;;;7.93;5.43;;;5.30;99.90;;;5.41;65.89;99326.66;4973705;28;20101;-70
2024/01/18 01:10:32;;;;;;;7.30;5.30;;;5.20;99.90;;;5.38;66.15;99321.44;4973883;28;20078;-70
2024/01/18 01:13:02;;;;;;;10.20;5.40;;;5.20;99.90;;;5.37;65.85;99324.06;4973603;28;20051;-70
2024/01/18 01:15:30;;;;;;;9.15;5.35;;;5.10;99.90;;;5.35;65.66;99328.47;4974092;28;20081;-69
2024/01/18 01:17:59;;;;;;;8.50;5.30;;;5.10;99.90;;;5.30;66.25;99327.63;4973456;28;20038;-70
2024/01/18 01:20:27;;;;;;;8.23;5.57;;;5.10;99.90;;;5.34;66.19;99324.13;4988365;28;20082;-71
2024/01/18 01:22:56;;;;;;;10.85;5.53;;;5.00;99.90;;;5.00;66.12;99285.94;4973499;28;20053;-69
2024/01/18 01:25:24;;;;;;;12.38;5.63;;;5.00;99.90;;;5.29;66.25;99331.13;4973177;28;20062;-70
2024/01/18 01:27:53;;;;;;;7.70;5.43;;;5.10;99.90;;;5.25;66.00;99332.03;4973056;28;20050;-70
2024/01/18 01:30:22;;;;;;;12.13;5.90;;;5.00;99.90;;;5.24;66.13;99333.81;4972924;28;20492;-71
2024/01/18 01:32:51;;;;;;;10.18;5.95;;;5.00;99.90;;;5.08;66.41;99337.41;4972995;28;20043;-70
2024/01/18 01:35:19;;;;;;;8.75;6.15;;;4.90;99.90;;;5.03;66.84;99346.19;4973133;28;20487;-71
2024/01/18 01:37:48;;;;;;;6.75;5.80;;;4.80;99.90;;;5.03;66.65;99344.41;4972936;28;20059;-70
2024/01/18 01:40:17;;;;;;;9.93;5.32;;;4.80;99.90;;;5.09;66.64;99349.63;4973390;28;20050;-70
2024/01/18 01:42:45;;;;;;;8.63;5.88;;;4.80;99.90;;;5.02;66.87;99357.53;4972698;28;20039;-69
2024/01/18 01:45:13;;;;;;;13.17;6.37;;;4.80;99.90;;;4.50;67.90;99362.19;4972003;28;20472;-71
2024/01/18 01:47:43;;;;;;;8.30;5.73;;;4.40;99.90;;;4.27;69.31;99364.03;4972728;28;20077;-68
2024/01/18 01:50:12;;;;;;;7.55;5.43;;;4.20;99.90;;;4.47;69.82;99360.47;4972987;28;20051;-71
2024/01/18 01:52:43;;;;;;;7.13;6.10;;;4.20;99.90;;;4.23;70.24;99357.94;4972891;28;20062;-71
2024/01/18 01:55:13;;;;;;;10.57;5.33;;;4.20;99.90;;;4.01;71.98;99366.72;4972629;28;20047;-70
2024/01/18 01:57:45;;;;;;;14.07;5.60;;;4.00;99.90;;;4.31;71.88;99371.88;4972882;28;20050;-69
2024/01/18 02:00:15;;;;;;;8.97;5.40;;;4.10;99.90;;;4.56;71.94;99370.03;4972847;28;20047;-70
2024/01/18 02:02:45;;;;;;;;;;;4.30;99.90;;;4.68;71.62;99372.59;4973160;28;20137;-69
2024/01/18 02:05:15;;;;;;;9.20;5.10;;;4.40;99.90;;;4.31;71.25;99345.72;4971468;28;19922;-69
2024/01/18 02:07:44;;;;;;;14.88;6.00;;;4.30;99.90;;;4.50;72.30;99383.13;4972969;28;20399;-70
2024/01/18 02:10:12;;;;;;;10.67;5.00;;;4.30;99.90;;;4.45;71.85;99348.28;4972673;28;20054;-70
2024/01/18 02:12:41;;;;;;;8.90;5.40;;;4.40;99.90;;;4.72;71.58;99381.28;4972311;28;20586;-69
2024/01/18 02:15:10;;;;;;;9.67;5.10;;;4.50;99.90;;;4.77;71.59;99384.75;4972564;28;20050;-69
2024/01/18 02:17:39;;;;;;;6.82;4.78;;;4.60;99.90;;;4.82;71.23;99385.63;4972301;28;20475;-70
2024/01/18 02:20:10;;;;;;;5.97;4.63;;;4.70;99.90;;;4.93;71.19;99399.50;4973091;28;20071;-71
2024/01/18 02:22:43;;;;;;;6.53;4.73;;;4.70;99.90;;;4.91;71.04;99406.50;4987636;28;20055;-70
2024/01/18 02:25:20;;;;;;;13.15;5.13;;;4.80;99.90;;;4.97;70.94;99396.00;4972403;28;20042;-69
2024/01/18 02:27:48;;;;;;;9.13;5.17;;;4.90;99.90;;;4.96;70.59;99396.88;4972436;28;20113;-70
2024/01/18 02:30:17;;;;;;;7.55;5.13;;;4.90;99.90;;;4.96;70.92;99395.13;4972347;28;20122;-70
2024/01/18 02:32:45;;;;;;;8.43;5.10;;;4.80;99.90;;;4.88;70.38;99385.59;4972400;28;20070;-70
2024/01/18 02:35:14;;;;;;;5.73;4.60;;;4.80;99.90;;;4.87;70.86;99392.56;4972476;28;20105;-70
2024/01/18 02:37:43;;;;;;;8.70;5.97;;;4.70;99.90;;;4.89;70.70;99395.16;4971963;28;20097;-70
2024/01/18 02:40:12;;;;;;;6.10;4.90;;;4.80;99.90;;;4.91;70.59;99382.94;4972001;28;20038;-71
2024/01/18 02:42:42;;;;;;;9.00;5.53;;;4.80;99.90;;;4.90;70.30;99394.28;4972204;28;20050;-71
2024/01/18 02:45:11;;;;;;;5.90;4.47;;;4.70;99.90;;;4.89;70.55;99393.44;4972370;28;20062;-70
2024/01/18 02:47:39;;;;;;;6.90;4.30;;;4.70;99.90;;;4.93;70.50;99391.66;4972192;28;20051;-71
2024/01/18 02:50:09;;;;;;;7.70;4.77;;;4.70;99.90;;;4.85;70.73;99383.84;4971960;28;20568;-69
2024/01/18 02:52:39;;;;;;;7.05;4.72;;;4.70;99.90;;;4.86;70.70;99397.81;4972134;28;20125;-71
2024/01/18 02:55:09;;;;;;;9.33;5.17;;;4.70;99.90;;;4.83;70.98;99396.06;4971919;28;20403;-70
2024/01/18 02:57:37;;;;;;;5.72;5.10;;;4.60;99.90;;;4.84;70.62;99399.56;4972106;28;20053;-70
2024/01/18 03:00:08;;;;;;;7.80;4.60;;;4.60;99.90;;;4.81;70.85;99392.59;4970768;28;20055;-70
2024/01/18 03:02:37;;;;;;;7.30;4.93;;;4.60;99.90;;;4.77;71.21;99403.09;4972237;28;20078;-70
2024/01/18 03:05:06;;;;;;;9.93;5.47;;;4.50;99.90;;;4.73;71.01;99394.38;4972021;28;20043;-71
2024/01/18 03:07:35;;;;;;;7.40;4.60;;;4.50;99.90;;;4.69;71.26;99391.78;4971706;28;20050;-70
2024/01/18 03:10:04;;;;;;;9.82;4.85;;;4.40;99.90;;;4.65;71.42;99404.00;4975651;28;20408;-71
2024/01/18 03:12:36;;;;;;;9.88;5.30;;;4.40;99.90;;;4.64;71.58;99399.66;4975547;28;20073;-70
2024/01/18 03:15:09;;;;;;;11.43;5.47;;;4.30;99.90;;;4.61;71.79;99389.19;4975709;28;20465;-70
2024/01/18 03:17:37;;;;;;;8.97;5.47;;;4.40;99.90;;;4.63;72.21;99410.16;4975530;28;20138;-70
2024/01/18 03:20:08;;;;;;;8.10;5.30;;;4.30;99.90;;;4.56;71.71;99404.94;4975911;28;20105;-71
2024/01/18 03:22:40;;;;;;;9.87;5.37;;;4.30;99.90;;;4.55;71.95;99408.41;4975951;28;20055;-70
2024/01/18 03:25:09;;;;;;;7.83;5.57;;;4.30;99.90;;;4.54;72.07;99400.56;4975334;28;20509;-71
2024/01/18 03:27:37;;;;;;;10.80;4.83;;;4.30;99.90;;;4.52;72.36;99408.44;4975315;28;20074;-70
2024/01/18 03:30:08;;;;;;;7.70;5.40;;;4.30;99.90;;;4.53;72.17;99415.41;4975259;28;20452;-69
2024/01/18 03:32:37;;;;;;;10.67;6.03;;;4.30;99.90;;;4.49;71.65;99413.66;4975774;28;20038;-69
2024/01/18 03:35:07;;;;;;;9.95;5.68;;;4.20;99.90;;;4.42;72.11;99416.31;4975290;28;20066;-70
2024/01/18 03:37:35;;;;;;;9.15;5.05;;;4.20;99.90;;;4.31;72.26;99419.00;4975166;28;20669;-69
2024/01/18 03:40:08;;;;;;;9.83;6.03;;;4.10;99.90;;;4.25;72.30;99423.34;4975211;28;20104;-69
2024/01/18 03:42:41;;;;;;;10.30;5.70;;;4.00;99.90;;;4.31;72.76;99424.22;4975274;28;20508;-70
2024/01/18 03:45:11;;;;;;;8.30;5.60;;;4.00;99.90;;;4.29;72.72;99422.47;4975226;28;20057;-68
2024/01/18 03:47:39;;;;;;;7.57;5.18;;;4.00;99.90;;;4.25;72.98;99416.38;4975630;28;20841;-71
2024/01/18 03:50:08;;;;;;;6.53;4.80;;;4.00;99.90;;;4.19;73.14;99408.56;4975168;28;20052;-69
2024/01/18 03:52:37;;;;;;;6.57;5.27;;;3.90;99.90;;;4.08;73.45;99428.63;4974877;28;20105;-70
2024/01/18 03:55:06;;;;;;;9.87;5.70;;;3.90;99.90;;;4.05;73.57;99420.78;4974787;28;20145;-70
2024/01/18 03:57:35;;;;;;;14.03;6.03;;;3.80;99.90;;;3.96;74.00;99418.19;4975186;28;20051;-70
2024/01/18 04:00:05;;;;;;;6.97;5.20;;;3.70;99.90;;;3.91;74.30;99421.69;4975011;28;20377;-69
2024/01/18 04:02:37;;;;;;;6.80;5.30;;;3.60;99.90;;;3.79;74.36;99421.69;4974970;28;20047;-70
2024/01/18 04:05:07;;;;;;;8.13;5.45;;;3.60;99.90;;;3.75;74.30;99425.19;4975020;28;20417;-70
2024/01/18 04:07:35;;;;;;;7.13;5.40;;;3.50;99.90;;;3.75;74.50;99431.28;4974883;28;20175;-70
2024/01/18 04:10:04;;;;;;;10.77;5.20;;;3.40;99.90;;;3.74;74.84;99432.13;4974587;28;20046;-70
2024/01/18 04:12:33;;;;;;;7.63;5.13;;;3.50;99.90;;;3.72;74.72;99435.66;4974542;28;20047;-70
2024/01/18 04:15:01;;;;;;;10.87;5.63;;;3.50;99.90;;;3.56;75.04;99438.25;4974396;28;20050;-69
2024/01/18 04:17:30;;;;;;;9.87;6.03;;;3.30;99.90;;;3.43;75.09;99433.88;4974414;28;20484;-70
2024/01/18 04:20:00;;;;;;;7.97;5.50;;;3.20;99.90;;;3.41;75.28;99438.25;4973230;28;20042;-70
2024/01/18 04:22:28;;;;;;;8.80;5.82;;;3.20;99.90;;;3.29;75.24;99437.38;4989672;28;20047;-70
2024/01/18 04:24:57;;;;;;;6.93;4.77;;;3.00;99.90;;;3.34;75.63;99436.50;4974742;28;20447;-69
2024/01/18 04:27:25;;;;;;;8.93;5.97;;;3.10;99.90;;;3.39;75.70;99437.38;4974536;28;20054;-71
2024/01/18 04:29:53;;;;;;;9.23;5.23;;;3.10;99.90;;;3.45;75.72;99439.09;4973090;28;20054;-68
2024/01/18 04:32:22;;;;;;;8.17;5.93;;;3.20;99.90;;;3.38;75.19;99445.22;4974356;28;20042;-71
2024/01/18 04:34:51;;;;;;;6.87;5.90;;;3.10;99.90;;;3.34;75.46;99449.56;4973977;28;20050;-71
2024/01/18 04:37:21;;;;;;;6.33;5.47;;;3.10;99.90;;;3.25;75.36;99453.91;4974115;28;20721;-71
2024/01/18 04:39:49;;;;;;;5.65;5.10;;;3.00;99.90;;;3.26;76.07;99451.28;4973065;28;20446;-69
2024/01/18 04:42:19;;;;;;;7.40;5.40;;;3.00;99.90;;;3.22;75.65;99462.59;4974201;28;20050;-71
2024/01/18 04:44:48;;;;;;;5.90;5.30;;;2.90;99.90;;;3.07;76.11;99454.72;4973950;28;20047;-69
2024/01/18 04:47:17;;;;;;;8.80;5.37;;;2.80;99.90;;;3.14;76.59;99466.03;4973882;28;20094;-70
2024/01/18 04:49:45;;;;;;;7.70;5.70;;;2.80;99.90;;;3.14;77.13;99474.75;4973799;28;20047;-70
2024/01/18 04:52:14;;;;;;;9.67;6.47;;;2.80;99.90;;;3.00;77.57;99470.38;4988758;28;20145;-70
2024/01/18 04:54:43;;;;;;;13.77;6.47;;;2.70;99.90;;;3.16;77.90;99464.31;4974024;28;20090;-69
2024/01/18 04:57:12;;;;;;;8.93;5.95;;;2.80;99.90;;;3.10;76.85;99469.50;4973958;28;20051;-69
2024/01/18 04:59:41;;;;;;;10.10;5.67;;;2.90;99.90;;;2.79;76.75;99423.31;4988829;28;20580;-70
2024/01/18 05:02:09;;;;;;;5.97;5.23;;;2.80;99.90;;;2.75;76.36;99465.06;4973741;28;20129;-70
2024/01/18 05:04:38;;;;;;;6.73;5.77;;;2.50;99.90;;;2.68;76.41;99467.63;4973774;28;20492;-69
2024/01/18 05:07:07;;;;;;;8.77;6.27;;;2.50;99.90;;;2.67;76.73;99473.75;4973568;28;20141;-70
2024/01/18 05:09:35;;;;;;;7.13;5.37;;;2.40;99.90;;;2.66;77.10;99470.25;4973512;28;20524;-69
2024/01/18 05:12:07;;;;;;;8.27;5.77;;;2.40;99.90;;;2.79;77.71;99472.91;4973844;28;20047;-70
2024/01/18 05:14:38;;;;;;;6.97;5.50;;;2.50;99.90;;;2.87;78.59;99477.28;4973653;28;20496;-70
2024/01/18 05:17:11;;;;;;;8.27;5.30;;;2.60;99.90;;;2.91;78.10;99486.00;4973365;28;20464;-71
2024/01/18 05:19:40;;;;;;;6.83;5.37;;;2.60;99.90;;;2.89;78.40;99500.78;4973668;28;20050;-70
2024/01/18 05:22:09;;;;;;;7.87;5.33;;;2.60;99.90;;;2.89;78.47;99495.56;4973482;28;20046;-68
2024/01/18 05:24:37;;;;;;;13.80;6.10;;;2.60;99.90;;;2.90;78.67;99497.31;4973565;28;20500;-71
2024/01/18 05:27:07;;;;;;;8.80;6.33;;;2.60;99.90;;;2.94;78.83;99505.19;4973676;28;20070;-69
2024/01/18 05:29:35;;;;;;;5.85;5.22;;;2.60;99.90;;;3.02;78.90;99510.44;4973385;28;20538;-71
2024/01/18 05:32:04;;;;;;;10.03;5.77;;;2.70;99.90;;;3.04;78.96;99506.94;4972719;28;20055;-69
2024/01/18 05:34:33;;;;;;;7.33;5.60;;;2.80;99.90;;;3.07;78.87;99514.78;4972901;28;20496;-70
2024/01/18 05:37:01;;;;;;;8.30;6.07;;;2.80;99.90;;;2.93;78.40;99502.53;4973254;28;20059;-70
2024/01/18 05:39:30;;;;;;;8.77;5.70;;;2.70;99.90;;;2.87;78.04;99513.84;4973119;28;20126;-69
2024/01/18 05:41:58;;;;;;;8.53;5.83;;;2.70;99.90;;;2.75;78.26;99512.03;4973401;28;20408;-71
2024/01/18 05:44:28;;;;;;;7.57;6.17;;;2.50;99.90;;;2.79;78.71;99512.06;4972771;28;20043;-70
2024/01/18 05:46:56;;;;;;;9.25;5.72;;;2.50;99.90;;;2.94;78.60;99518.25;4973053;28;20051;-70
2024/01/18 05:49:25;;;;;;;7.20;5.33;;;2.60;99.90;;;2.96;78.70;99515.63;4971673;28;20058;-69
2024/01/18 05:51:54;;;;;;;8.70;5.80;;;2.70;99.90;;;3.01;78.81;99521.72;4972990;28;20043;-70
2024/01/18 05:54:22;;;;;;;9.70;6.20;;;2.70;99.90;;;2.92;79.57;99519.97;4973246;28;20046;-70
2024/01/18 05:56:50;;;;;;;8.10;6.67;;;2.70;99.90;;;2.95;79.47;99521.69;4987804;28;20780;-69
2024/01/18 05:59:19;;;;;;;8.47;6.43;;;2.70;99.90;;;3.02;80.16;99528.72;4971750;28;20661;-71
2024/01/18 06:01:49;;;;;;;8.53;5.73;;;2.70;99.90;;;2.93;79.46;99533.88;4973009;28;20058;-69
2024/01/18 06:04:17;;;;;;;10.95;6.03;;;2.70;99.90;;;2.77;79.38;99513.81;4987549;28;20110;-71
2024/01/18 06:06:46;;;;;;;9.70;6.70;;;2.70;99.90;;;2.96;79.56;99544.34;4972504;28;20456;-69
2024/01/18 06:09:16;;;;;;;10.00;5.77;;;2.70;99.90;;;3.02;79.68;99539.16;4972936;28;20039;-71
2024/01/18 06:11:45;;;;;;;7.80;5.80;;;2.80;99.90;;;2.81;78.38;99544.28;4987503;28;20047;-70
2024/01/18 06:14:13;;;;;;;7.87;5.93;;;2.60;99.90;;;2.61;78.98;99557.22;4971347;28;20066;-71
2024/01/18 06:16:42;;;;;;;8.53;6.47;;;2.40;99.90;;;2.64;78.78;99547.66;4972327;28;20510;-69
2024/01/18 06:19:12;;;;;;;8.97;6.53;;;2.40;99.90;;;2.68;78.82;99561.59;4971514;28;20439;-70
2024/01/18 06:21:44;;;;;;;8.27;6.20;;;2.50;99.90;;;2.49;78.48;99562.34;4987640;28;20389;-71
2024/01/18 06:24:13;;;;;;;9.33;6.27;;;2.30;99.90;;;2.20;78.49;99559.53;4971149;28;20047;-70
2024/01/18 06:26:41;;;;;;;12.93;8.43;;;2.10;99.90;;;2.26;79.35;99570.03;4972149;28;20430;-70
2024/01/18 06:29:11;;;;;;;21.37;10.33;;;2.00;99.90;;;2.21;79.34;99568.22;4970866;28;20051;-70
2024/01/18 06:31:40;;;;;;;15.65;8.73;;;2.00;99.90;;;2.13;79.97;99573.38;4987347;28;20480;-70
2024/01/18 06:34:08;;;;;;;13.43;9.50;;;2.00;99.90;;;2.20;80.80;99577.78;4972221;28;20573;-70
2024/01/18 06:36:38;;;;;;;11.13;8.03;;;1.90;99.90;;;2.27;80.64;99579.56;4972521;28;20050;-69
2024/01/18 06:39:07;;;;;;;11.73;8.60;;;2.00;99.90;;;2.29;80.31;99575.25;4972043;28;20459;-69
2024/01/18 06:41:36;;;;;;;15.57;7.40;;;2.10;99.90;;;2.26;80.30;99590.88;4972148;28;20046;-69
2024/01/18 06:44:05;;;;;;;10.93;7.87;;;2.00;99.90;;;2.23;80.34;99603.88;4971323;28;20448;-69
2024/01/18 06:46:34;;;;;;;9.85;7.57;;;2.00;99.90;;;2.11;80.08;99614.19;4971905;28;20046;-70
2024/01/18 06:49:02;;;;;;;14.10;6.67;;;1.90;99.90;;;1.63;83.96;99618.94;4972108;28;20046;-68
2024/01/18 06:51:31;;;;;;;9.57;6.30;;;1.60;99.90;;;2.05;84.21;99616.78;4972086;28;20055;-70
2024/01/18 06:54:01;;;;;;;6.07;5.27;;;1.80;99.90;;;2.19;82.88;99601.25;4971801;28;20043;-70
2024/01/18 06:56:29;;;;;;;6.47;4.95;;;2.00;99.90;;;2.22;81.28;99593.44;4971828;28;20065;-68
2024/01/18 06:58:58;;;;;;;5.77;5.23;;;2.10;99.90;;;2.34;79.34;99610.06;4971765;28;20046;-70
2024/01/18 07:01:26;;;;;;;5.43;5.03;;;2.20;99.90;;;2.50;77.91;99611.03;4971868;28;20091;-70
2024/01/18 07:03:54;;;;;;;6.00;5.50;;;2.40;99.90;;;2.65;75.24;99622.47;4971754;28;20050;-72
2024/01/18 07:06:22;;;;;;;9.07;5.80;;;2.50;99.90;;;2.86;73.51;99619.13;4971828;28;20054;-70
2024/01/18 07:08:51;;;;;;;4.47;4.20;;;2.70;99.90;;;3.00;72.58;99614.00;4972134;28;20119;-69
2024/01/18 07:11:20;;;;;;;5.40;5.10;;;2.90;99.90;;;3.23;71.74;99628.03;4972243;28;20054;-70
2024/01/18 07:13:49;;;;;;;4.70;4.30;;;3.10;99.90;;;3.53;71.54;99628.16;4971981;28;20481;-70
2024/01/18 07:16:17;;;;;;;4.40;4.17;;;3.30;99.90;;;3.61;70.50;99632.56;4971829;28;20047;-69
2024/01/18 07:18:46;;;;;;;4.87;4.33;;;3.40;99.90;;;3.78;70.51;99624.75;4971826;28;20047;-69
2024/01/18 07:21:14;;;;;;;4.70;4.33;;;3.60;99.90;;;3.98;69.68;99636.13;4971728;28;20046;-70
2024/01/18 07:23:43;;;;;;;4.50;4.20;;;3.80;99.90;;;4.13;69.31;99632.66;4971543;28;20583;-70
2024/01/18 07:26:11;;;;;;;5.23;4.87;;;4.00;99.90;;;4.18;68.59;99641.41;4971558;28;20477;-70
2024/01/18 07:28:41;;;;;;;5.57;4.70;;;4.00;99.90;;;4.31;68.28;99649.28;4971533;28;20523;-71
2024/01/18 07:31:09;;;;;;;5.15;4.45;;;4.10;99.90;;;4.35;67.89;99648.41;4971829;28;20047;-68
2024/01/18 07:33:38;;;;;;;4.57;4.07;;;4.20;99.90;;;4.38;67.58;99651.00;4972175;28;20117;-71
2024/01/18 07:36:07;;;;;;;5.27;4.87;;;4.20;99.90;;;4.11;67.92;99645.75;4971678;28;20059;-67
2024/01/18 07:38:36;;;;;;;4.97;4.50;;;4.10;99.90;;;4.23;68.20;99664.09;4971463;28;20070;-69
2024/01/18 07:41:04;;;;;;;5.00;4.50;;;4.00;99.90;;;4.28;67.96;99662.34;4971422;28;20499;-67
2024/01/18 07:43:33;;;;;;;5.67;5.07;;;4.10;99.90;;;4.35;67.87;99668.47;4971442;28;20125;-70
2024/01/18 07:46:03;;;;;;;5.77;4.90;;;4.20;99.90;;;4.42;67.17;99673.69;4971283;28;20515;-68
2024/01/18 07:48:34;;;;;;;5.47;5.07;;;4.20;99.90;;;4.41;67.53;99679.78;4971438;28;20039;-69
2024/01/18 07:51:03;;;;;;;6.03;5.47;;;4.20;99.90;;;4.46;67.42;99679.81;4971636;28;20072;-66
2024/01/18 07:53:31;;;;;;;5.07;4.57;;;4.30;99.90;;;4.47;67.26;99677.19;4971392;28;20077;-74
2024/01/18 07:55:59;;;;;;;5.20;4.70;;;4.30;99.90;;;4.55;67.33;99685.03;4973664;28;20089;-73
2024/01/18 07:58:28;;;;;;;5.23;4.93;;;4.40;99.90;;;4.61;67.61;99686.81;4974734;28;20440;-74
2024/01/18 08:00:56;;;;;;;5.03;4.50;;;4.50;99.90;;;4.68;67.92;99693.78;4975374;28;20527;-72
2024/01/18 08:03:27;;;;;;;5.60;4.67;;;4.60;99.90;;;4.63;67.99;99698.16;4974696;28;20047;-78
2024/01/18 08:05:56;;;;;;;7.97;6.27;;;4.50;99.90;;;4.63;68.13;99700.78;4975166;28;20472;-85
2024/01/18 08:08:25;;;;;;;5.57;5.07;;;4.40;99.90;;;4.73;68.04;99708.63;4974636;28;20115;-67
2024/01/18 08:10:54;;;;;;;5.50;4.93;;;4.40;99.90;;;4.91;67.16;99702.50;4974580;28;20078;-70
2024/01/18 08:13:23;;;;;;;6.13;5.45;;;4.60;99.90;;;5.21;66.06;99718.19;4989583;28;20452;-72
2024/01/18 08:15:51;;;;;;;4.80;4.40;;;4.90;99.90;;;5.59;65.86;99720.72;4974720;28;20054;-68
2024/01/18 08:18:20;;;;;;;5.47;4.35;;;5.20;99.90;;;6.00;65.32;99724.94;4974493;28;20047;-70
2024/01/18 08:20:50;;;;;;;5.03;4.63;;;5.60;99.90;;;6.28;64.42;99729.19;4974957;28;20158;-69
2024/01/18 08:23:19;;;;;;;6.63;5.15;;;5.90;99.90;;;6.74;63.98;99740.25;4974171;28;20043;-68
2024/01/18 08:25:50;;;;;;;5.20;4.22;;;6.50;99.90;;;7.15;63.28;99750.44;4974172;28;20126;-67
2024/01/18 08:28:19;;;;;;;6.15;4.13;;;6.90;99.90;;;7.44;62.01;99751.06;4989446;28;20493;-70
2024/01/18 08:30:47;;;;;;;5.13;4.03;;;7.20;99.90;;;7.71;60.73;99756.03;4974431;28;20051;-70
2024/01/18 08:33:16;;;;;;;5.63;4.38;;;7.50;99.90;;;7.86;60.14;99742.69;4974405;28;20408;-72
2024/01/18 08:35:44;;;;;;;7.40;4.70;;;7.90;99.90;;;8.29;60.41;99771.16;4974005;28;20216;-75
2024/01/18 08:38:14;;;;;;;7.75;4.57;;;8.20;99.90;;;8.55;59.21;99769.94;4974184;28;20535;-75
2024/01/18 08:40:43;;;;;;;4.22;3.83;;;8.50;99.90;;;8.81;59.00;99777.44;4974169;28;20117;-83
2024/01/18 08:43:12;;;;;;;8.90;4.18;;;8.80;99.90;;;9.06;58.72;99782.31;4974383;28;20112;-76
2024/01/18 08:45:41;;;;;;;7.47;4.10;;;9.00;99.90;;;8.81;58.19;99780.97;4973914;28;20415;-79
2024/01/18 08:48:10;;;;;;;7.95;3.72;;;8.80;99.90;;;8.81;59.16;99791.50;4973876;28;20049;-79
2024/01/18 08:50:39;;;;;;;5.15;3.72;;;8.70;99.90;;;8.48;58.54;99791.97;4973869;28;20043;-82
2024/01/18 08:53:08;;;;;;;5.43;3.95;;;8.30;99.90;;;8.05;59.60;99796.88;4974998;28;20051;-80
2024/01/18 08:55:38;;;;;;;4.28;3.88;;;7.80;99.90;;;7.67;60.23;99796.41;4974566;28;20370;-80
2024/01/18 08:58:08;;;;;;;;;;;7.40;99.90;;;7.35;61.05;99793.22;4989277;28;20114;-79
2024/01/18 09:00:37;;;;;;;5.78;4.05;;;7.10;99.90;;;7.10;61.64;99791.69;4973890;28;19928;-81
2024/01/18 09:03:07;;;;;;;6.45;4.72;;;6.80;99.90;;;7.25;62.88;99800.34;4974019;28;20051;-83
2024/01/18 09:05:35;;;;;;;6.40;4.90;;;6.90;99.90;;;7.74;62.44;99798.09;4973226;28;20462;-71
2024/01/18 09:08:04;;;;;;;12.15;4.55;;;7.30;99.90;;;8.21;61.60;99800.19;4974135;28;20047;-82
2024/01/18 09:10:34;;;;;;;;;;;7.80;99.90;;;8.61;61.02;99804.13;4974037;28;20413;-84
2024/01/18 09:13:04;;;;;;;6.03;4.85;;;8.30;99.90;;;8.86;60.21;99807.25;4973487;28;20009;-80
2024/01/18 09:15:34;;;;;;;6.18;4.28;;;8.60;99.90;;;9.14;59.82;99823.56;4973600;28;20042;-81
2024/01/18 09:18:03;;;;;;;7.88;4.40;;;8.90;99.90;;;9.26;59.76;99828.63;4973933;28;20082;-83
2024/01/18 09:20:32;;;;;;;4.93;4.47;;;9.00;99.90;;;9.62;59.92;99842.06;4973773;28;20038;-84
2024/01/18 09:23:03;;;;;;;6.38;4.13;;;9.30;99.90;;;10.09;59.66;99842.97;4973521;28;20066;-85
2024/01/18 09:25:40;;;;;;;5.13;4.00;;;9.80;99.90;;;10.56;58.80;99856.19;4973545;28;20511;-84
2024/01/18 09:28:10;;;;;;;5.85;4.65;;;10.30;99.90;;;10.56;57.80;99849.13;4973358;28;20043;-84
2024/01/18 09:30:38;;;;;;;8.18;4.68;;;10.40;99.90;;;10.64;57.35;99872.75;4973351;28;20381;-83
2024/01/18 09:33:11;;;;;;;6.00;4.53;;;10.50;99.90;;;10.46;56.66;99878.41;4973169;28;20377;-84
2024/01/18 09:35:40;;;;;;;5.43;4.57;;;10.30;99.90;;;9.97;56.06;99881.94;4973351;28;20062;-75
2024/01/18 09:38:10;;;;;;;7.40;4.43;;;9.80;99.90;;;9.59;56.16;99881.72;4972865;28;20057;-75
2024/01/18 09:40:40;;;;;;;11.20;4.63;;;9.30;99.90;;;9.50;56.74;99897.72;4973387;28;20455;-81
2024/01/18 09:43:11;;;;;;;10.98;4.82;;;9.20;99.90;;;9.64;56.92;99900.16;4972921;28;20074;-78
2024/01/18 09:45:48;;;;;;;10.43;4.10;;;9.30;99.90;;;9.56;57.70;99908.16;4972777;28;20066;-81
2024/01/18 09:48:17;;;;;;;9.77;4.55;;;9.30;99.90;;;9.40;58.12;99914.59;4972626;28;20054;-78
2024/01/18 09:50:46;;;;;;;9.10;4.00;;;9.20;99.90;;;9.35;58.58;99923.47;4972953;28;20472;-82
2024/01/18 09:53:14;;;;;;;9.05;4.25;;;9.20;99.90;;;9.14;59.22;99919.38;4972745;28;20051;-83
2024/01/18 09:55:43;;;;;;;8.93;3.83;;;9.00;99.90;;;8.87;60.01;99930.28;4973086;28;20069;-83
2024/01/18 09:58:14;;;;;;;9.55;3.75;;;8.70;99.90;;;8.76;60.92;99937.47;4972639;28;20089;-80
2024/01/18 10:00:48;;;;;;;9.10;4.55;;;8.60;99.90;;;8.73;61.13;99935.72;4972914;28;20070;-74
2024/01/18 10:03:17;;;;;;;7.50;4.82;;;8.60;99.90;;;8.62;61.37;99944.66;4972862;28;20043;-72
2024/01/18 10:05:46;;;;;;;10.55;5.30;;;8.50;99.90;;;8.50;61.10;99939.50;4972583;28;20051;-79
2024/01/18 10:08:14;;;;;;;7.10;4.63;;;8.40;99.90;;;8.61;62.45;99941.16;4972451;28;20515;-82
2024/01/18 10:10:43;;;;;;;8.40;4.70;;;8.40;99.90;;;8.59;63.04;99947.34;4987654;28;20082;-64
2024/01/18 10:13:14;;;;;;;7.13;4.70;;;8.40;99.90;;;8.98;63.17;99949.50;4972741;28;20047;-66
2024/01/18 10:15:43;;;;;;;10.15;5.53;;;8.80;99.90;;;9.14;62.46;99964.22;4972796;28;20054;-65
2024/01/18 10:18:11;;;;;;;7.93;4.97;;;8.90;99.90;;;9.12;62.30;99963.34;4986516;28;20046;-64
2024/01/18 10:20:40;;;;;;;7.55;4.63;;;8.90;99.90;;;9.31;61.51;99967.47;4972305;28;20131;-64
2024/01/18 10:23:10;;;;;;;7.35;4.38;;;9.10;99.90;;;9.42;60.89;99960.31;4987332;28;20160;-64
2024/01/18 10:25:39;;;;;;;5.88;3.88;;;9.20;99.90;;;9.35;61.26;99966.53;4972835;28;20046;-64
2024/01/18 10:28:08;;;;;;;8.80;4.68;;;9.10;99.90;;;9.07;62.56;99967.84;4972045;28;20049;-64
2024/01/18 10:30:38;;;;;;;9.60;4.13;;;8.80;99.90;;;9.53;62.97;99974.22;4987285;28;20385;-65
2024/01/18 10:33:08;;;;;;;6.32;4.00;;;9.20;99.90;;;10.10;62.63;99985.69;4972103;28;20043;-65
2024/01/18 10:35:37;;;;;;;5.38;4.10;;;9.80;99.90;;;10.59;62.15;99988.31;4972055;28;20069;-65
2024/01/18 10:38:07;;;;;;;9.07;4.10;;;10.30;99.90;;;10.81;60.62;99998.47;4970978;28;20432;-65
2024/01/18 10:40:37;;;;;;;7.85;4.20;;;10.60;99.90;;;11.17;58.97;99996.00;4971937;28;20522;-65